الكل
Riversleigh Airport YRLH حالة الطقس
There is no TAF data available at YRLH or any nearby airports.
There is no METAR data available at YRLH. Showing METAR data for YCNY (19 mi شمال).
محفوظات أحدث تقرير روتيني عن حالة الطقس من أجل الطيران (الميتار) YCNY ( لا توجد بيانات لـYRLH)
| Date | Time (AEST) | Flight Rules | Wind Dir. | Speed | Type | Height AGL (ft) | Visibility | Temp (°C) | Temp (°F) | Dew Point (°C) | Dew Point (°F) | Rel. Humid. | Pressure | Density Altitude | Remarks |
|---|---|---|---|---|---|---|---|---|---|---|---|---|---|---|---|
| 09-ماي | 18:00 | n/a | 120° | 6 kt | Missing | 28° | 82° | 11° | 51° | 35% | 1015 mb | 1,923 ft | |||
| 09-ماي | 17:00 | n/a | 130° | 8 kt | Missing | 29° | 84° | 11° | 51° | 33% | 1014 mb | 2,073 ft | |||
| 09-ماي | 16:00 | n/a | 150° | 7 kt | Missing | 29° | 84° | 11° | 51° | 33% | 1014 mb | 2,073 ft | |||
| 09-ماي | 15:00 | n/a | 130° | 9 kt | Missing | 29° | 84° | 11° | 51° | 33% | 1014 mb | 2,073 ft | |||
| 09-ماي | 14:00 | n/a | 140° | 9 kt | Missing | 30° | 86° | 11° | 51° | 31% | 1015 mb | 2,163 ft | |||
| 09-ماي | 13:00 | n/a | 150° | 10 kt | Missing | 29° | 84° | 9° | 48° | 29% | 1016 mb | 2,014 ft | |||
| 09-ماي | 12:00 | n/a | 140° | 10 kt | Missing | 28° | 82° | 8° | 46° | 28% | 1017 mb | 1,864 ft | |||
| 09-ماي | 11:00 | n/a | 130° | 11 kt | Missing | 25° | 77° | 5° | 41° | 28% | 1018 mb | 1,474 ft | |||
| 09-ماي | 10:00 | n/a | 140° | 11 kt | Missing | 23° | 73° | 1° | 33° | 23% | 1018 mb | 1,234 ft | |||
| 09-ماي | 09:00 | n/a | 160° | 9 kt | Missing | 22° | 71° | 0° | 32° | 23% | 1018 mb | 1,114 ft | |||
| 09-ماي | 08:00 | n/a | 170° | 7 kt | Missing | 20° | 68° | 1° | 33° | 28% | 1017 mb | 904 ft | |||
| 09-ماي | 07:00 | n/a | 170° | 6 kt | Missing | 18° | 64° | 2° | 35° | 34% | 1017 mb | 664 ft | |||
| 09-ماي | 06:00 | n/a | 170° | 6 kt | Missing | 19° | 66° | 3° | 37° | 34% | 1016 mb | 814 ft | |||
| 09-ماي | 05:00 | n/a | 160° | 7 kt | Missing | 19° | 66° | 4° | 39° | 37% | 1016 mb | 814 ft | |||
| 09-ماي | 04:00 | n/a | 170° | 7 kt | Missing | 20° | 68° | 6° | 42° | 40% | 1016 mb | 934 ft | |||
| 09-ماي | 03:00 | n/a | 170° | 7 kt | Missing | 20° | 68° | 7° | 44° | 43% | 1016 mb | 934 ft | |||
| 09-ماي | 02:00 | n/a | 170° | 8 kt | Missing | 21° | 69° | 7° | 44° | 40% | 1016 mb | 1,054 ft | |||
| 09-ماي | 01:00 | n/a | 170° | 9 kt | Missing | 22° | 71° | 8° | 46° | 41% | 1016 mb | 1,174 ft | |||
| 09-ماي | 00:00 | n/a | 190° | 7 kt | Missing | 22° | 71° | 10° | 50° | 46% | 1017 mb | 1,144 ft | |||
| 08-ماي | 23:00 | n/a | 190° | 7 kt | Missing | 23° | 73° | 11° | 51° | 47% | 1017 mb | 1,264 ft | |||
| 08-ماي | 22:00 | n/a | 180° | 7 kt | Missing | 24° | 75° | 10° | 50° | 41% | 1017 mb | 1,384 ft | |||
| 08-ماي | 21:00 | n/a | 170° | 7 kt | Missing | 25° | 77° | 11° | 51° | 41% | 1017 mb | 1,504 ft | |||
| 08-ماي | 20:00 | n/a | 170° | 6 kt | Missing | 25° | 77° | 12° | 53° | 44% | 1016 mb | 1,534 ft | |||
| 08-ماي | 19:00 | n/a | 160° | 7 kt | Missing | 26° | 78° | 12° | 53° | 42% | 1015 mb | 1,683 ft |
تسجيل الدخول
| مُتصفحك غير مُدعَّم. قم بترقية متصفحك |
